Metar z połowy godziny Komunikat METAR ze strony awiacja.imgw.pl Metar Mil EPLK METAR EPLK 271330Z 17004KT 130V210 9999 OVC006 00/00 Q0996 RMK 003 100 8/8=